Map

Track Data

SID SEASON NUMBER BASIN SUBBASIN NAME ISO_TIME NATURE LAT LON WMO_WIND WMO_PRES WMO_AGENCY TRACK_TYPE DIST2LAND LANDFALL IFLAG USA_AGENCY USA_ATCF_ID USA_LAT USA_LON USA_RECORD USA_STATUS USA_WIND USA_PRES USA_SSHS USA_R34_NE USA_R34_SE USA_R34_SW USA_R34_NW USA_R50_NE USA_R50_SE USA_R50_SW USA_R50_NW USA_R64_NE USA_R64_SE USA_R64_SW USA_R64_NW USA_POCI USA_ROCI USA_RMW USA_EYE TOKYO_LAT TOKYO_LON TOKYO_GRADE TOKYO_WIND TOKYO_PRES TOKYO_R50_DIR TOKYO_R50_LONG TOKYO_R50_SHORT TOKYO_R30_DIR TOKYO_R30_LONG TOKYO_R30_SHORT TOKYO_LAND CMA_LAT CMA_LON CMA_CAT CMA_WIND CMA_PRES HKO_LAT HKO_LON HKO_CAT HKO_WIND HKO_PRES NEWDELHI_LAT NEWDELHI_LON NEWDELHI_GRADE NEWDELHI_WIND NEWDELHI_PRES NEWDELHI_CI NEWDELHI_DP NEWDELHI_POCI REUNION_LAT REUNION_LON REUNION_TYPE REUNION_WIND REUNION_PRES REUNION_TNUM REUNION_CI REUNION_RMW REUNION_R34_NE REUNION_R34_SE REUNION_R34_SW REUNION_R34_NW REUNION_R50_NE REUNION_R50_SE REUNION_R50_SW REUNION_R50_NW REUNION_R64_NE REUNION_R64_SE REUNION_R64_SW REUNION_R64_NW BOM_LAT BOM_LON BOM_TYPE BOM_WIND BOM_PRES BOM_TNUM BOM_CI BOM_RMW BOM_R34_NE BOM_R34_SE BOM_R34_SW BOM_R34_NW BOM_R50_NE BOM_R50_SE BOM_R50_SW BOM_R50_NW BOM_R64_NE BOM_R64_SE BOM_R64_SW BOM_R64_NW BOM_ROCI BOM_POCI BOM_EYE BOM_POS_METHOD BOM_PRES_METHOD NADI_LAT NADI_LON NADI_CAT NADI_WIND NADI_PRES WELLINGTON_LAT WELLINGTON_LON WELLINGTON_WIND WELLINGTON_PRES DS824_LAT DS824_LON DS824_STAGE DS824_WIND DS824_PRES TD9636_LAT TD9636_LON TD9636_STAGE TD9636_WIND TD9636_PRES TD9635_LAT TD9635_LON TD9635_WIND TD9635_PRES TD9635_ROCI NEUMANN_LAT NEUMANN_LON NEUMANN_CLASS NEUMANN_WIND NEUMANN_PRES MLC_LAT MLC_LON MLC_CLASS MLC_WIND MLC_PRES USA_GUST BOM_GUST BOM_GUST_PER REUNION_GUST REUNION_GUST_PER USA_SEAHGT USA_SEARAD_NE USA_SEARAD_SE USA_SEARAD_SW USA_SEARAD_NW STORM_SPEED STORM_DIR
1972241N11266 1972 82 EP MM HYACINTH 1972-08-28 00:00:00 TS 10.9000 -94.1000 25 hurdat_epa main 446 446 O________OO___ hurdat_epa EP081972 10.9000 -94.1000 TD 25 -1 10.9000 -94.1000 TC 25 10.9000 -94.1000 1 8 256
1972241N11266 1972 82 EP MM HYACINTH 1972-08-28 03:00:00 TS 10.8003 -94.4957 main 480 480 P________PP___ EP081972 10.8026 -94.4875 TD 25 -1 10.8026 -94.4875 TC 25 10.7911 -94.5283 1 8 256
1972241N11266 1972 82 EP MM HYACINTH 1972-08-28 06:00:00 TS 10.6971 -94.9110 25 hurdat_epa main 516 516 O________OP___ hurdat_epa EP081972 10.7000 -94.9000 TD 25 -1 10.7000 -94.9000 TC 25 10.6855 -94.9552 1 9 256
1972241N11266 1972 82 EP MM HYACINTH 1972-08-28 09:00:00 TS 10.5914 -95.3559 main 558 558 P________PP___ EP081972 10.5925 -95.3500 TD 25 -1 10.5925 -95.3500 TC 25 10.5872 -95.3795 1 9 257
1972241N11266 1972 82 EP MM HYACINTH 1972-08-28 12:00:00 TS 10.5000 -95.8000 25 hurdat_epa main 577 573 O________OO___ hurdat_epa EP081972 10.5000 -95.8000 TD 25 -1 10.5000 -95.8000 TC 25 10.5000 -95.8000 1 8 259
1972241N11266 1972 82 EP MM HYACINTH 1972-08-28 15:00:00 TS 10.4337 -96.2034 main 583 582 P________PP___ EP081972 10.4349 -96.2000 TD 25 -1 10.4349 -96.2000 TC 25 10.4288 -96.2170 1 8 263
1972241N11266 1972 82 EP MM HYACINTH 1972-08-28 18:00:00 TS 10.3964 -96.6070 25 hurdat_epa main 582 582 O________OP___ hurdat_epa EP081972 10.4000 -96.6000 TD 25 -1 10.4000 -96.6000 TC 25 10.3822 -96.6352 1 8 266
1972241N11266 1972 82 EP MM HYACINTH 1972-08-28 21:00:00 TS 10.3819 -97.0462 main 583 583 P________PP___ EP081972 10.3850 -97.0425 TD 27 -1 10.3850 -97.0425 TC 27 10.3694 -97.0608 1 9 270
1972241N11266 1972 82 EP MM HYACINTH 1972-08-29 00:00:00 TS 10.4000 -97.5000 30 hurdat_epa main 590 590 O________OO___ hurdat_epa EP081972 10.4000 -97.5000 TD 30 -1 10.4000 -97.5000 TC 30 10.4000 -97.5000 1 9 273
1972241N11266 1972 82 EP MM HYACINTH 1972-08-29 03:00:00 TS 10.4224 -97.9326 main 599 596 P________PP___ EP081972 10.4199 -97.9426 TD 30 -1 10.4199 -97.9426 TC 30 10.4321 -97.8927 1 9 277
1972241N11266 1972 82 EP MM HYACINTH 1972-08-29 06:00:00 TS 10.5027 -98.3819 30 hurdat_epa main 603 600 O________OP___ hurdat_epa EP081972 10.5000 -98.4000 TD 30 -1 10.5000 -98.4000 TC 30 10.5134 -98.3094 1 9 285
1972241N11266 1972 82 EP MM HYACINTH 1972-08-29 09:00:00 TS 10.6503 -98.8256 main 598 593 P________PP___ EP081972 10.6471 -98.8329 TD 30 -1 10.6471 -98.8329 TC 30 10.6630 -98.7964 1 11 292
1972241N11266 1972 82 EP MM HYACINTH 1972-08-29 12:00:00 TS 10.9000 -99.4000 30 hurdat_epa main 596 587 O________OO___ hurdat_epa EP081972 10.9000 -99.4000 TD 30 -1 10.9000 -99.4000 TC 30 10.9000 -99.4000 1 15 294
1972241N11266 1972 82 EP MM HYACINTH 1972-08-29 15:00:00 TS 11.2640 -100.241 main 585 579 P________PP___ EP081972 11.2627 -100.240 TD 35 0 11.2627 -100.240 TC 35 11.2691 -100.245 1 19 294
1972241N11266 1972 82 EP MM HYACINTH 1972-08-29 18:00:00 TS 11.7031 -101.199 40 hurdat_epa main 582 568 O________OP___ hurdat_epa EP081972 11.7000 -101.200 TS 40 0 11.7000 -101.200 TC 40 11.7154 -101.197 1 21 296
1972241N11266 1972 82 EP MM HYACINTH 1972-08-29 21:00:00 TS 12.1739 -102.158 main 571 560 P________PP___ EP081972 12.1727 -102.160 TS 40 0 12.1727 -102.160 TC 40 12.1787 -102.151 1 20 297
1972241N11266 1972 82 EP MM HYACINTH 1972-08-30 00:00:00 TS 12.6000 -103.000 40 hurdat_epa main 564 555 O________OO___ hurdat_epa EP081972 12.6000 -103.000 TS 40 0 12.6000 -103.000 TC 40 12.6000 -103.000 2 16 297
1972241N11266 1972 82 EP MM HYACINTH 1972-08-30 03:00:00 TS 12.8849 -103.573 main 560 556 P________PP___ EP081972 12.8795 -103.568 TS 40 0 12.8795 -103.568 TC 40 12.9066 -103.594 2 11 297
1972241N11266 1972 82 EP MM HYACINTH 1972-08-30 06:00:00 TS 13.1130 -104.014 40 hurdat_epa main 563 549 O________OP___ hurdat_epa EP081972 13.1000 -104.000 TS 40 0 13.1000 -104.000 TC 40 13.1652 -104.072 2 10 299
1972241N11266 1972 82 EP MM HYACINTH 1972-08-30 09:00:00 TS 13.3641 -104.458 main 553 542 P________PP___ EP081972 13.3573 -104.450 TS 40 0 13.3573 -104.450 TC 40 13.3913 -104.488 2 10 299
1972241N11266 1972 82 EP MM HYACINTH 1972-08-30 12:00:00 TS 13.6000 -104.900 40 hurdat_epa main 546 535 O________OO___ hurdat_epa EP081972 13.6000 -104.900 TS 40 0 13.6000 -104.900 TC 40 13.6000 -104.900 2 10 296
1972241N11266 1972 82 EP MM HYACINTH 1972-08-30 15:00:00 TS 13.8079 -105.389 main 543 536 P________PP___ EP081972 13.8074 -105.393 TS 60 0 13.8074 -105.393 TC 60 13.8098 -105.373 2 10 293
1972241N11266 1972 82 EP MM HYACINTH 1972-08-30 18:00:00 TS 14.0013 -105.891 80 984 hurdat_epa main 545 540 O________OP___ hurdat_epa EP081972 14.0000 -105.900 HU 80 984 1 14.0000 -105.900 TC 80 984 14.0067 -105.856 2 10 292
1972241N11266 1972 82 EP MM HYACINTH 1972-08-30 21:00:00 TS 14.1939 -106.380 main 553 550 P________PP___ EP081972 14.1923 -106.385 HU 80 1 14.1923 -106.385 TC 80 14.2003 -106.361 2 11 292
1972241N11266 1972 82 EP MM HYACINTH 1972-08-31 00:00:00 TS 14.4000 -106.900 80 hurdat_epa main 567 565 O________OO___ hurdat_epa EP081972 14.4000 -106.900 HU 80 1 14.4000 -106.900 TC 80 14.4000 -106.900 4 12 293
1972241N11266 1972 82 EP MM HYACINTH 1972-08-31 03:00:00 TS 14.6467 -107.477 main 589 579 P________PP___ EP081972 14.6499 -107.478 HU 80 1 14.6499 -107.478 TC 80 14.6338 -107.477 4 13 293
1972241N11266 1972 82 EP MM HYACINTH 1972-08-31 06:00:00 TS 14.8944 -108.098 80 hurdat_epa main 595 595 O________OP___ hurdat_epa EP081972 14.9000 -108.100 HU 80 1 14.9000 -108.100 TC 80 14.8720 -108.090 4 13 291
1972241N11266 1972 82 EP MM HYACINTH 1972-08-31 09:00:00 TS 15.1177 -108.735 main 618 617 P________PP___ EP081972 15.1223 -108.735 HU 82 1 15.1223 -108.735 TC 82 15.0992 -108.733 4 13 288
1972241N11266 1972 82 EP MM HYACINTH 1972-08-31 12:00:00 TS 15.3000 -109.400 85 hurdat_epa main 654 654 O________OO___ hurdat_epa EP081972 15.3000 -109.400 HU 85 2 15.3000 -109.400 TC 85 15.3000 -109.400 4 13 283
1972241N11266 1972 82 EP MM HYACINTH 1972-08-31 15:00:00 TS 15.4133 -110.091 main 700 700 P________PP___ EP081972 15.4073 -110.093 HU 97 3 15.4073 -110.093 TC 97 15.4373 -110.083 4 14 279
1972241N11266 1972 82 EP MM HYACINTH 1972-08-31 18:00:00 TS 15.5099 -110.797 110 972 hurdat_epa main 748 748 O________OP___ hurdat_epa EP081972 15.5000 -110.800 HU 110 972 3 15.5000 -110.800 TC 110 972 15.5497 -110.786 4 14 279
1972241N11266 1972 82 EP MM HYACINTH 1972-08-31 21:00:00 TS 15.6403 -111.499 main 801 801 P________PP___ EP081972 15.6348 -111.500 HU 110 3 15.6348 -111.500 TC 110 15.6622 -111.496 4 14 282
1972241N11266 1972 82 EP MM HYACINTH 1972-09-01 00:00:00 TS 15.8000 -112.200 110 hurdat_epa main 827 822 O________OO___ hurdat_epa EP081972 15.8000 -112.200 HU 110 3 15.8000 -112.200 TC 110 15.8000 -112.200 4 14 284
1972241N11266 1972 82 EP MM HYACINTH 1972-09-01 03:00:00 TS 15.9879 -112.907 main 829 827 P________PP___ EP081972 15.9848 -112.908 HU 110 3 15.9848 -112.908 TC 110 16.0000 -112.902 4 14 287
1972241N11266 1972 82 EP MM HYACINTH 1972-09-01 06:00:00 TS 16.2054 -113.599 110 hurdat_epa main 838 838 O________OP___ hurdat_epa EP081972 16.2000 -113.600 HU 110 3 16.2000 -113.600 TC 110 16.2272 -113.595 4 14 290
1972241N11266 1972 82 EP MM HYACINTH 1972-09-01 09:00:00 TS 16.4530 -114.271 main 845 845 P________PP___ EP081972 16.4499 -114.272 HU 110 3 16.4499 -114.272 TC 110 16.4657 -114.265 4 13 292
1972241N11266 1972 82 EP MM HYACINTH 1972-09-01 12:00:00 TS 16.7000 -114.900 110 hurdat_epa main 862 862 O________OO___ hurdat_epa EP081972 16.7000 -114.900 HU 110 3 16.7000 -114.900 TC 110 16.7000 -114.900 4 12 292
1972241N11266 1972 82 EP MM HYACINTH 1972-09-01 15:00:00 TS 16.9079 -115.470 main 883 881 P________PP___ EP081972 16.9072 -115.465 HU 105 3 16.9072 -115.465 TC 105 16.9103 -115.490 4 11 291
1972241N11266 1972 82 EP MM HYACINTH 1972-09-01 18:00:00 TS 17.1028 -116.009 100 hurdat_epa main 901 901 O________OP___ hurdat_epa EP081972 17.1000 -116.000 HU 100 3 17.1000 -116.000 TC 100 17.1139 -116.046 4 11 291
1972241N11266 1972 82 EP MM HYACINTH 1972-09-01 21:00:00 TS 17.3020 -116.556 main 930 930 P________PP___ EP081972 17.2999 -116.550 HU 97 3 17.2999 -116.550 TC 97 17.3105 -116.578 4 11 291
1972241N11266 1972 82 EP MM HYACINTH 1972-09-02 00:00:00 TS 17.5000 -117.100 95 hurdat_epa main 955 955 O________OO___ hurdat_epa EP081972 17.5000 -117.100 HU 95 2 17.5000 -117.100 TC 95 17.5000 -117.100 4 11 291
1972241N11266 1972 82 EP MM HYACINTH 1972-09-02 03:00:00 TS 17.7007 -117.657 main 974 971 P________PP___ EP081972 17.7074 -117.658 HU 95 2 17.7074 -117.658 TC 95 17.6740 -117.657 4 11 290
1972241N11266 1972 82 EP MM HYACINTH 1972-09-02 06:00:00 TS 17.8885 -118.201 95 hurdat_epa main 988 988 O________OP___ hurdat_epa EP081972 17.9000 -118.200 HU 95 2 17.9000 -118.200 TC 95 17.8425 -118.203 4 11 289
1972241N11266 1972 82 EP MM HYACINTH 1972-09-02 09:00:00 TS 18.0429 -118.723 main 1013 1012 P________PP___ EP081972 18.0499 -118.723 HU 95 2 18.0499 -118.723 TC 95 18.0147 -118.723 4 10 288
1972241N11266 1972 82 EP MM HYACINTH 1972-09-02 12:00:00 TS 18.2000 -119.200 95 hurdat_epa main 1032 1032 O________OO___ hurdat_epa EP081972 18.2000 -119.200 HU 95 2 18.2000 -119.200 TC 95 18.2000 -119.200 4 9 292
1972241N11266 1972 82 EP MM HYACINTH 1972-09-02 15:00:00 TS 18.3874 -119.619 main 1046 1046 P________PP___ EP081972 18.3849 -119.623 HU 90 2 18.3849 -119.623 TC 90 18.3975 -119.603 4 9 298
1972241N11266 1972 82 EP MM HYACINTH 1972-09-02 18:00:00 TS 18.6022 -119.993 85 962 hurdat_epa main 1062 1062 O________OP___ hurdat_epa EP081972 18.6000 -120.000 HU 85 962 2 18.6000 -120.000 TC 85 962 18.6112 -119.966 4 8 304
1972241N11266 1972 82 EP MM HYACINTH 1972-09-02 21:00:00 TS 18.8427 -120.332 main 1071 1071 P________PP___ EP081972 18.8422 -120.335 HU 75 1 18.8422 -120.335 TC 75 18.8444 -120.322 4 8 307
1972241N11266 1972 82 EP MM HYACINTH 1972-09-03 00:00:00 TS 19.1000 -120.700 65 hurdat_epa main 1083 1083 O________OO___ hurdat_epa EP081972 19.1000 -120.700 HU 65 1 19.1000 -120.700 TC 65 19.1000 -120.700 4 9 302
1972241N11266 1972 82 EP MM HYACINTH 1972-09-03 03:00:00 TS 19.3398 -121.181 main 1112 1105 P________PP___ EP081972 19.3351 -121.185 HU 65 1 19.3351 -121.185 TC 65 19.3585 -121.167 4 11 299
1972241N11266 1972 82 EP MM HYACINTH 1972-09-03 06:00:00 TS 19.6081 -121.692 65 hurdat_epa main 1128 1125 O________OP___ hurdat_epa EP081972 19.6000 -121.700 HU 65 1 19.6000 -121.700 TC 65 19.6405 -121.658 4 11 303
1972241N11266 1972 82 EP MM HYACINTH 1972-09-03 09:00:00 TS 19.9324 -122.161 main 1137 1125 P________PP___ EP081972 19.9274 -122.165 HU 65 1 19.9274 -122.165 TC 65 19.9522 -122.145 4 11 309
1972241N11266 1972 82 EP MM HYACINTH 1972-09-03 12:00:00 TS 20.3000 -122.600 65 hurdat_epa main 1130 1126 O________OO___ hurdat_epa EP081972 20.3000 -122.600 HU 65 1 20.3000 -122.600 TC 65 20.3000 -122.600 4 11 313
1972241N11266 1972 82 EP MM HYACINTH 1972-09-03 15:00:00 TS 20.6816 -123.019 main 1126 1124 P________PP___ EP081972 20.6849 -123.023 HU 67 1 20.6849 -123.023 TC 67 20.6684 -123.007 4 11 317
1972241N11266 1972 82 EP MM HYACINTH 1972-09-03 18:00:00 TS 21.0949 -123.395 70 hurdat_epa main 1124 1117 O________OP___ hurdat_epa EP081972 21.1000 -123.400 HU 70 1 21.1000 -123.400 TC 70 21.0746 -123.376 4 11 322
1972241N11266 1972 82 EP MM HYACINTH 1972-09-03 21:00:00 TS 21.5316 -123.720 main 1118 1106 P________PP___ EP081972 21.5349 -123.723 HU 65 1 21.5349 -123.723 TC 65 21.5186 -123.707 4 11 328
1972241N11266 1972 82 EP MM HYACINTH 1972-09-04 00:00:00 TS 22.0000 -124.000 60 hurdat_epa main 1108 1098 O________OO___ hurdat_epa EP081972 22.0000 -124.000 TS 60 0 22.0000 -124.000 TC 60 22.0000 -124.000 4 11 331
1972241N11266 1972 82 EP MM HYACINTH 1972-09-04 03:00:00 TS 22.4661 -124.275 main 1100 1091 P________PP___ EP081972 22.4775 -124.265 TS 60 0 22.4775 -124.265 TC 60 22.4209 -124.313 4 11 334
1972241N11266 1972 82 EP MM HYACINTH 1972-09-04 06:00:00 TS 22.9781 -124.517 60 hurdat_epa main 1088 1078 O________OP___ hurdat_epa EP081972 23.0000 -124.500 TS 60 0 23.0000 -124.500 TC 60 22.8904 -124.583 4 11 337
1972241N11266 1972 82 EP MM HYACINTH 1972-09-04 09:00:00 TS 23.5010 -124.741 main 1078 1063 P________PP___ EP081972 23.5101 -124.730 TS 60 0 23.5101 -124.730 TC 60 23.4647 -124.787 4 13 344
1972241N11266 1972 82 EP MM HYACINTH 1972-09-04 12:00:00 TS 24.2000 -124.900 60 hurdat_epa main 1063 1032 O________OO___ hurdat_epa EP081972 24.2000 -124.900 TS 60 0 24.2000 -124.900 TC 60 24.2000 -124.900 2 18 352
1972241N11266 1972 82 EP MM HYACINTH 1972-09-04 15:00:00 TS 25.2260 -125.008 main 1032 986 P________PP___ EP081972 25.2175 -125.017 TS 60 0 25.2175 -125.017 TC 60 25.2600 -124.974 2 22 358
1972241N11266 1972 82 EP MM HYACINTH 1972-09-04 18:00:00 TS 26.4126 -124.989 60 990 hurdat_epa main 981 861 O________OP___ hurdat_epa EP081972 26.4000 -125.000 TS 60 990 0 26.4000 -125.000 TC 60 990 26.4632 -124.946 2 24 4
1972241N11266 1972 82 EP MM HYACINTH 1972-09-04 21:00:00 TS 27.6317 -124.832 main 861 739 P________PP___ EP081972 27.6247 -124.840 TS 52 0 27.6247 -124.840 TC 52 27.6599 -124.796 2 23 11
1972241N11266 1972 82 EP MM HYACINTH 1972-09-05 00:00:00 TS 28.7000 -124.500 45 hurdat_epa main 739 647 O________OO___ hurdat_epa EP081972 28.7000 -124.500 TS 45 0 28.7000 -124.500 TC 45 28.7000 -124.500 2 19 22
1972241N11266 1972 82 EP MM HYACINTH 1972-09-05 03:00:00 TS 29.4125 -124.018 main 647 571 P________PP___ EP081972 29.4124 -124.010 TS 45 0 29.4124 -124.010 TC 45 29.4127 -124.053 2 15 38
1972241N11266 1972 82 EP MM HYACINTH 1972-09-05 06:00:00 TS 29.9096 -123.413 45 hurdat_epa main 571 505 O________OP___ hurdat_epa EP081972 29.9000 -123.400 TS 45 0 29.9000 -123.400 TC 45 29.9482 -123.466 2 14 49
1972241N11266 1972 82 EP MM HYACINTH 1972-09-05 09:00:00 TS 30.3478 -122.771 main 505 438 P________PP___ EP081972 30.3449 -122.764 TS 45 0 30.3449 -122.764 TC 45 30.3594 -122.796 2 14 55
1972241N11266 1972 82 EP MM HYACINTH 1972-09-05 12:00:00 TS 30.7000 -122.100 45 hurdat_epa main 438 390 O________OO___ hurdat_epa EP081972 30.7000 -122.100 TS 45 0 30.7000 -122.100 TC 45 30.7000 -122.100 2 13 60
1972241N11266 1972 82 EP MM HYACINTH 1972-09-05 15:00:00 TS 31.0149 -121.444 main 388 346 P________PP___ EP081972 31.0147 -121.449 TS 42 0 31.0147 -121.449 TC 42 31.0158 -121.424 2 13 62
1972241N11266 1972 82 EP MM HYACINTH 1972-09-05 18:00:00 TS 31.3030 -120.796 40 1009 hurdat_epa main 346 288 O________OP___ hurdat_epa EP081972 31.3000 -120.800 TS 40 1009 0 31.3000 -120.800 TC 40 1009 31.3188 -120.772 2 13 62
1972241N11266 1972 82 EP MM HYACINTH 1972-09-05 21:00:00 TS 31.6080 -120.135 main 282 225 P________PP___ EP081972 31.6074 -120.135 TS 35 0 31.6074 -120.135 TC 35 31.6125 -120.133 2 13 62
1972241N11266 1972 82 EP MM HYACINTH 1972-09-06 00:00:00 TS 31.9000 -119.500 30 hurdat_epa main 225 172 O________OO___ hurdat_epa EP081972 31.9000 -119.500 TD 30 -1 31.9000 -119.500 TC 30 31.9000 -119.500 2 12 62
1972241N11266 1972 82 EP MM HYACINTH 1972-09-06 03:00:00 TS 32.1497 -118.919 main 172 117 P________P____ EP081972 32.1497 -118.919 TD 30 -1 32.1497 -118.919 TC 30 2 11 62
1972241N11266 1972 82 EP MM HYACINTH 1972-09-06 06:00:00 ET 32.4000 -118.400 30 hurdat_epa main 117 73 O________O____ hurdat_epa EP081972 32.4000 -118.400 ET 30 -4 32.4000 -118.400 30 2 10 57
1972241N11266 1972 82 EP MM HYACINTH 1972-09-06 09:00:00 ET 32.6997 -117.927 main 65 18 P________P____ EP081972 32.6997 -117.927 ET 27 -4 32.6997 -117.927 27 2 10 52
1972241N11266 1972 82 EP MM HYACINTH 1972-09-06 12:00:00 ET 33.0000 -117.500 25 hurdat_epa main 18 0 O________O____ hurdat_epa EP081972 33.0000 -117.500 ET 25 -4 33.0000 -117.500 25 9 52
1972241N11266 1972 82 EP MM HYACINTH 1972-09-06 15:00:00 ET 33.2499 -117.085 main 0 0 P________P____ EP081972 33.2499 -117.085 ET 25 -4 33.2499 -117.085 25 8 53
1972241N11266 1972 82 EP MM HYACINTH 1972-09-06 18:00:00 ET 33.5000 -116.700 25 hurdat_epa main 0 0 O________O____ hurdat_epa EP081972 33.5000 -116.700 ET 25 -4 33.5000 -116.700 25 8 49
1972241N11266 1972 82 EP MM HYACINTH 1972-09-06 21:00:00 ET 33.7877 -116.343 main 0 0 P________P____ EP081972 33.7877 -116.343 ET 25 -4 33.7877 -116.343 25 8 44
1972241N11266 1972 82 EP MM HYACINTH 1972-09-07 00:00:00 ET 34.1000 -116.000 25 hurdat_epa main 0 O________O____ hurdat_epa EP081972 34.1000 -116.000 ET 25 -4 34.1000 -116.000 25 8 42

About IBTrACS Database

This database is a web-friendly format of International Best Track Archive for Climate Stewardship (IBTrACS), a global best track data archive curated by NOAA dating back to 1842.

Updated: 2021-10-25